createdAt,value
2019-05-06T00:02:04.427Z,11.87
2019-05-06T00:05:08.346Z,7.07
2019-05-06T00:08:14.344Z,7.50
2019-05-06T00:11:18.435Z,7.13
2019-05-06T00:14:23.526Z,8.17
2019-05-06T00:17:27.784Z,8.57
2019-05-06T00:20:31.784Z,8.97
2019-05-06T00:23:40.561Z,9.27
2019-05-06T00:26:57.621Z,7.13
2019-05-06T00:30:04.479Z,8.00
2019-05-06T00:33:08.564Z,5.50
2019-05-06T00:36:14.180Z,7.37
2019-05-06T00:39:33.976Z,7.83
2019-05-06T00:42:41.987Z,7.67
2019-05-06T00:45:45.836Z,10.03
2019-05-06T00:48:50.070Z,8.97
2019-05-06T00:51:55.026Z,7.77
2019-05-06T00:54:59.061Z,7.50
2019-05-06T00:58:04.103Z,8.77
2019-05-06T01:01:08.698Z,5.10
2019-05-06T01:04:13.920Z,7.00
2019-05-06T01:07:18.062Z,6.60
2019-05-06T01:10:23.825Z,8.83
2019-05-06T01:13:49.917Z,10.37
2019-05-06T01:16:54.737Z,9.17
2019-05-06T01:19:59.171Z,7.70
2019-05-06T01:23:03.838Z,12.27
2019-05-06T01:26:07.922Z,7.90
2019-05-06T01:29:14.562Z,7.47
2019-05-06T01:32:19.215Z,10.73
2019-05-06T01:35:24.506Z,11.47
2019-05-06T01:38:34.063Z,11.53
2019-05-06T01:42:04.455Z,5.70
2019-05-06T01:45:09.563Z,8.87
2019-05-06T01:48:14.351Z,8.20
2019-05-06T01:51:24.178Z,6.20
2019-05-06T01:54:27.771Z,6.37
2019-05-06T01:57:33.694Z,6.70
2019-05-06T02:00:39.521Z,8.73
2019-05-06T02:03:44.246Z,7.67
2019-05-06T02:06:48.461Z,10.03
2019-05-06T02:09:54.194Z,22.67
2019-05-06T02:12:58.344Z,17.10
2019-05-06T02:16:03.973Z,16.90
2019-05-06T02:19:08.157Z,17.33
2019-05-06T02:22:23.585Z,22.57
2019-05-06T02:25:34.240Z,13.73
2019-05-06T02:28:40.049Z,11.57
2019-05-06T02:32:16.171Z,11.13
2019-05-06T02:35:14.883Z,13.63
2019-05-06T02:38:39.140Z,16.77
2019-05-06T02:41:37.209Z,12.77
2019-05-06T02:44:44.245Z,12.87
2019-05-06T02:48:05.559Z,10.57
2019-05-06T02:51:13.370Z,14.23
2019-05-06T02:54:17.880Z,15.67
2019-05-06T02:57:23.857Z,14.93
2019-05-06T03:00:27.771Z,18.30
2019-05-06T03:03:33.787Z,21.07
2019-05-06T03:06:38.449Z,18.37
2019-05-06T03:09:44.544Z,13.27
2019-05-06T03:12:48.229Z,17.13
2019-05-06T03:15:54.123Z,15.57
2019-05-06T03:18:58.710Z,15.73
2019-05-06T03:22:24.059Z,15.40
2019-05-06T03:25:29.557Z,11.70
2019-05-06T03:28:34.569Z,13.97
2019-05-06T03:31:38.954Z,10.57
2019-05-06T03:35:01.224Z,10.10
2019-05-06T03:37:49.531Z,9.43
2019-05-06T03:40:54.160Z,14.23
2019-05-06T03:43:58.887Z,10.00
2019-05-06T03:47:34.964Z,12.17
2019-05-06T03:50:38.965Z,9.03
2019-05-06T03:53:44.251Z,10.57
2019-05-06T03:56:50.273Z,18.00
2019-05-06T03:59:55.435Z,13.47
2019-05-06T04:03:02.882Z,14.37
2019-05-06T04:06:05.787Z,12.70
2019-05-06T04:09:13.004Z,12.00
2019-05-06T04:12:16.993Z,12.63
2019-05-06T04:15:22.970Z,11.43
2019-05-06T04:18:29.385Z,11.70
2019-05-06T04:21:44.514Z,10.63
2019-05-06T04:24:59.077Z,14.03
2019-05-06T04:28:12.915Z,9.10
2019-05-06T04:31:17.247Z,11.93
2019-05-06T04:34:23.386Z,12.47
2019-05-06T04:37:27.850Z,12.73
2019-05-06T04:40:33.119Z,10.30
2019-05-06T04:43:37.704Z,8.80
2019-05-06T04:46:44.363Z,11.13
2019-05-06T04:49:48.054Z,10.77
2019-05-06T04:53:04.837Z,14.80
2019-05-06T04:56:08.494Z,13.00
2019-05-06T04:59:13.982Z,17.07
2019-05-06T05:02:18.947Z,15.60
2019-05-06T05:05:23.209Z,16.27
2019-05-06T05:08:39.235Z,17.07
2019-05-06T05:11:56.528Z,12.20
2019-05-06T05:15:19.789Z,16.80
2019-05-06T05:18:32.013Z,14.70
2019-05-06T05:21:36.771Z,12.87
2019-05-06T05:24:42.542Z,16.90
2019-05-06T05:27:46.915Z,16.30
2019-05-06T05:30:52.224Z,16.10
2019-05-06T05:33:57.482Z,18.57
2019-05-06T05:37:03.066Z,16.10
2019-05-06T05:40:07.359Z,14.57
2019-05-06T05:43:39.415Z,15.90
2019-05-06T05:46:43.873Z,19.63
2019-05-06T05:50:08.244Z,14.90
2019-05-06T05:53:12.532Z,18.17
2019-05-06T05:56:16.516Z,16.47
2019-05-06T05:59:23.244Z,15.37
2019-05-06T06:02:26.989Z,14.87
2019-05-06T06:05:32.997Z,19.57
2019-05-06T06:08:37.397Z,14.60
2019-05-06T06:11:48.424Z,13.47
2019-05-06T06:15:14.263Z,15.03
2019-05-06T06:18:27.944Z,14.83
2019-05-06T06:21:48.203Z,15.93
2019-05-06T06:24:52.629Z,17.97
2019-05-06T06:27:57.475Z,12.60
2019-05-06T06:31:17.517Z,16.47
2019-05-06T06:34:27.313Z,17.23
2019-05-06T06:38:02.877Z,13.67
2019-05-06T06:41:06.879Z,17.63
2019-05-06T06:44:14.538Z,19.33
2019-05-06T06:47:18.927Z,12.60
2019-05-06T06:50:24.023Z,12.23
2019-05-06T06:53:28.428Z,15.17
2019-05-06T06:57:03.215Z,14.23
2019-05-06T07:00:06.145Z,14.03
2019-05-06T07:03:12.966Z,16.77
2019-05-06T07:06:27.514Z,17.10
2019-05-06T07:09:32.341Z,13.67
2019-05-06T07:12:36.885Z,16.57
2019-05-06T07:15:42.661Z,15.77
2019-05-06T07:18:46.636Z,18.40
2019-05-06T07:21:56.177Z,15.47
2019-05-06T07:25:03.562Z,11.00
2019-05-06T07:28:06.174Z,16.60
2019-05-06T07:31:20.701Z,17.30
2019-05-06T07:34:15.831Z,14.53
2019-05-06T07:37:21.959Z,11.57
2019-05-06T07:40:25.952Z,13.93
2019-05-06T07:43:46.907Z,19.70
2019-05-06T07:46:57.392Z,13.50
2019-05-06T07:50:02.568Z,10.90
2019-05-06T07:53:06.950Z,14.60
2019-05-06T07:56:12.648Z,14.47
2019-05-06T07:59:16.959Z,12.70
2019-05-06T08:02:22.850Z,13.97
2019-05-06T08:05:27.468Z,15.97
2019-05-06T08:08:33.429Z,11.13
2019-05-06T08:11:37.700Z,15.70
2019-05-06T08:14:43.434Z,14.83
2019-05-06T08:17:47.916Z,10.70
2019-05-06T08:20:52.203Z,15.17
2019-05-06T08:23:56.535Z,14.10
2019-05-06T08:27:02.895Z,15.77
2019-05-06T08:30:07.208Z,14.37
2019-05-06T08:33:12.904Z,15.17
2019-05-06T08:36:23.832Z,13.23
2019-05-06T08:39:27.934Z,10.07
2019-05-06T08:42:32.914Z,14.13
2019-05-06T08:45:37.431Z,10.80
2019-05-06T08:48:42.826Z,11.10
2019-05-06T08:51:57.113Z,12.50
2019-05-06T08:55:02.928Z,9.57
2019-05-06T08:58:07.985Z,11.37
2019-05-06T09:01:15.051Z,10.90
2019-05-06T09:04:19.157Z,13.40
2019-05-06T09:07:23.869Z,13.67
2019-05-06T09:10:28.296Z,10.97
2019-05-06T09:13:32.704Z,9.87
2019-05-06T09:16:37.175Z,14.67
2019-05-06T09:19:42.655Z,11.03
2019-05-06T09:22:47.043Z,8.77
2019-05-06T09:25:53.069Z,7.00
2019-05-06T09:29:03.824Z,5.80
2019-05-06T09:32:13.977Z,7.30
2019-05-06T09:35:18.286Z,8.97
2019-05-06T09:38:22.901Z,10.03
2019-05-06T09:41:27.132Z,9.40
2019-05-06T09:44:33.000Z,8.53
2019-05-06T09:47:56.484Z,7.27
2019-05-06T09:51:02.893Z,9.33
2019-05-06T09:54:32.445Z,6.37
2019-05-06T09:57:55.819Z,8.67
2019-05-06T10:01:02.721Z,6.83
2019-05-06T10:04:09.771Z,14.53
2019-05-06T10:07:14.119Z,7.33
2019-05-06T10:10:18.046Z,6.20
2019-05-06T10:13:22.089Z,5.53
2019-05-06T10:16:26.539Z,7.43
2019-05-06T10:19:32.093Z,9.03
2019-05-06T10:22:36.293Z,7.17
2019-05-06T10:25:43.365Z,5.70
2019-05-06T10:29:22.272Z,6.77
2019-05-06T10:32:42.629Z,8.97
2019-05-06T10:35:46.777Z,10.37
2019-05-06T10:38:58.062Z,13.10
2019-05-06T10:42:13.989Z,7.10
2019-05-06T10:45:28.401Z,9.00
2019-05-06T10:48:32.593Z,9.80
2019-05-06T10:51:47.991Z,11.07
2019-05-06T10:54:52.252Z,8.50
2019-05-06T10:57:56.642Z,6.63
2019-05-06T11:01:25.814Z,9.60
2019-05-06T11:04:29.836Z,6.63
2019-05-06T11:07:35.406Z,6.47
2019-05-06T11:10:44.138Z,8.33
2019-05-06T11:13:46.237Z,7.63
2019-05-06T11:16:50.115Z,7.03
2019-05-06T11:19:53.967Z,8.93
2019-05-06T11:22:58.557Z,5.07
2019-05-06T11:26:03.135Z,4.63
2019-05-06T11:29:18.985Z,7.80
2019-05-06T11:32:54.814Z,6.90
2019-05-06T11:36:01.974Z,7.50
2019-05-06T11:39:07.090Z,10.57
2019-05-06T11:42:24.939Z,11.80
2019-05-06T11:45:17.014Z,7.60
2019-05-06T11:48:22.286Z,8.23
2019-05-06T11:51:28.083Z,7.13
2019-05-06T11:54:33.739Z,8.40
2019-05-06T11:57:41.677Z,6.17
2019-05-06T12:00:45.672Z,7.40
2019-05-06T12:03:49.549Z,8.93
2019-05-06T12:07:09.987Z,11.13
2019-05-06T12:09:59.150Z,9.63
2019-05-06T12:13:03.155Z,14.90
2019-05-06T12:16:07.529Z,11.40
2019-05-06T12:19:13.134Z,8.20
2019-05-06T12:22:17.507Z,8.83
2019-05-06T12:25:23.435Z,8.30
2019-05-06T12:28:28.008Z,6.40
2019-05-06T12:31:32.853Z,6.63
2019-05-06T12:34:37.357Z,7.23
2019-05-06T12:37:44.059Z,7.10
2019-05-06T12:40:48.603Z,7.13
2019-05-06T12:43:53.125Z,6.83
2019-05-06T12:47:04.775Z,6.40
2019-05-06T12:50:08.844Z,7.70
2019-05-06T12:53:13.355Z,8.03
2019-05-06T12:56:17.752Z,8.43
2019-05-06T12:59:22.312Z,9.37
2019-05-06T13:02:26.607Z,7.33
2019-05-06T13:05:31.936Z,6.57
2019-05-06T13:08:54.092Z,9.07
2019-05-06T13:11:43.172Z,9.43
2019-05-06T13:14:47.298Z,6.37
2019-05-06T13:17:53.160Z,7.47
2019-05-06T13:20:57.993Z,8.20
2019-05-06T13:24:05.556Z,6.17
2019-05-06T13:27:12.573Z,5.37
2019-05-06T13:30:17.698Z,7.03
2019-05-06T13:33:30.446Z,6.77
2019-05-06T13:36:35.783Z,6.57
2019-05-06T13:39:40.359Z,7.00
2019-05-06T13:43:03.783Z,7.10
2019-05-06T13:46:15.160Z,7.70
2019-05-06T13:49:37.634Z,7.33
2019-05-06T13:52:43.490Z,10.97
2019-05-06T13:55:47.381Z,6.27
2019-05-06T13:58:52.675Z,6.83
2019-05-06T14:02:16.296Z,5.30
2019-05-06T14:05:21.292Z,8.47
2019-05-06T14:08:25.547Z,5.37
2019-05-06T14:11:29.742Z,7.90
2019-05-06T14:14:33.923Z,24.73
2019-05-06T14:17:37.938Z,7.23
2019-05-06T14:20:42.918Z,8.63
2019-05-06T14:23:47.266Z,6.27
2019-05-06T14:27:02.521Z,7.17
2019-05-06T14:30:13.854Z,12.37
2019-05-06T14:33:19.736Z,7.80
2019-05-06T14:36:27.426Z,8.63
2019-05-06T14:39:49.072Z,12.90
2019-05-06T14:42:38.514Z,14.57
2019-05-06T14:45:42.419Z,10.27
2019-05-06T14:48:47.926Z,6.00
2019-05-06T14:51:53.694Z,6.77
2019-05-06T14:55:07.854Z,6.93
2019-05-06T14:58:12.141Z,5.97
2019-05-06T15:01:16.310Z,6.13
2019-05-06T15:04:22.813Z,6.97
2019-05-06T15:07:26.327Z,5.50
2019-05-06T15:10:32.143Z,6.97
2019-05-06T15:13:36.686Z,5.73
2019-05-06T15:16:42.233Z,5.40
2019-05-06T15:19:46.752Z,7.27
2019-05-06T15:22:52.984Z,6.13
2019-05-06T15:25:57.307Z,8.07
2019-05-06T15:29:03.360Z,4.57
2019-05-06T15:32:24.169Z,5.90
2019-05-06T15:35:47.173Z,5.17
2019-05-06T15:38:52.760Z,9.70
2019-05-06T15:41:56.934Z,6.40
2019-05-06T15:45:01.678Z,5.27
2019-05-06T15:48:05.588Z,7.73
2019-05-06T15:51:12.085Z,6.73
2019-05-06T15:54:15.220Z,4.87
2019-05-06T15:57:19.654Z,6.33
2019-05-06T16:00:23.750Z,6.77
2019-05-06T16:03:28.112Z,4.37
2019-05-06T16:06:33.137Z,6.40
2019-05-06T16:09:37.235Z,6.87
2019-05-06T16:12:44.026Z,7.57
2019-05-06T16:15:48.245Z,6.97
2019-05-06T16:18:52.094Z,7.63
2019-05-06T16:21:56.214Z,7.60
2019-05-06T16:25:07.884Z,8.60
2019-05-06T16:28:13.006Z,5.60
2019-05-06T16:31:17.284Z,5.80
2019-05-06T16:34:22.805Z,7.10
2019-05-06T16:37:27.057Z,6.07
2019-05-06T16:40:33.508Z,6.93
2019-05-06T16:43:37.222Z,5.83
2019-05-06T16:46:42.701Z,6.07
2019-05-06T16:49:46.741Z,14.10
2019-05-06T16:52:52.572Z,8.83
2019-05-06T16:56:02.377Z,8.47
2019-05-06T16:59:06.314Z,8.33
2019-05-06T17:02:22.853Z,5.63
2019-05-06T17:05:45.001Z,5.43
2019-05-06T17:08:49.418Z,8.87
2019-05-06T17:11:53.923Z,6.27
2019-05-06T17:14:57.847Z,5.83
2019-05-06T17:18:03.046Z,6.17
2019-05-06T17:21:07.376Z,6.23
2019-05-06T17:24:13.066Z,7.43
2019-05-06T17:27:17.192Z,6.03
2019-05-06T17:30:42.773Z,9.10
2019-05-06T17:33:47.517Z,8.67
2019-05-06T17:36:53.814Z,24.23
2019-05-06T17:40:07.874Z,10.77
2019-05-06T17:43:04.416Z,6.83
2019-05-06T17:46:08.773Z,8.90
2019-05-06T17:49:16.439Z,9.03
2019-05-06T17:52:22.421Z,6.00
2019-05-06T17:55:26.398Z,6.60
2019-05-06T17:58:30.325Z,8.33
2019-05-06T18:01:44.070Z,8.40
2019-05-06T18:04:48.220Z,7.73
2019-05-06T18:07:52.056Z,6.43
2019-05-06T18:10:56.464Z,5.83
2019-05-06T18:14:00.492Z,6.93
2019-05-06T18:17:04.882Z,11.60
2019-05-06T18:20:09.939Z,6.97
2019-05-06T18:23:13.803Z,7.40
2019-05-06T18:26:18.047Z,8.37
2019-05-06T18:29:22.443Z,5.77
2019-05-06T18:32:27.054Z,6.87
2019-05-06T18:35:31.178Z,9.07
2019-05-06T18:38:35.184Z,9.73
2019-05-06T18:41:39.288Z,7.07
2019-05-06T18:44:43.534Z,8.37
2019-05-06T18:47:47.448Z,8.50
2019-05-06T18:50:52.023Z,8.63
2019-05-06T18:53:56.287Z,7.00
2019-05-06T18:57:04.616Z,8.70
2019-05-06T19:00:07.115Z,8.40
2019-05-06T19:03:12.133Z,10.80
2019-05-06T19:06:16.102Z,8.57
2019-05-06T19:09:39.021Z,9.50
2019-05-06T19:12:43.014Z,9.53
2019-05-06T19:15:47.441Z,10.60
2019-05-06T19:18:52.185Z,13.40
2019-05-06T19:21:56.662Z,10.50
2019-05-06T19:25:02.632Z,10.97
2019-05-06T19:28:06.691Z,8.33
2019-05-06T19:31:12.315Z,9.87
2019-05-06T19:34:16.701Z,10.20
2019-05-06T19:37:23.085Z,11.30
2019-05-06T19:40:26.601Z,8.67
2019-05-06T19:43:32.874Z,12.23
2019-05-06T19:46:37.343Z,7.30
2019-05-06T19:49:42.437Z,8.67
2019-05-06T19:52:46.440Z,8.20
2019-05-06T19:55:50.372Z,8.00
2019-05-06T19:58:54.332Z,7.53
2019-05-06T20:01:58.664Z,8.30
2019-05-06T20:05:07.346Z,10.47
2019-05-06T20:08:24.782Z,10.80
2019-05-06T20:11:33.208Z,15.03
2019-05-06T20:14:37.053Z,7.20
2019-05-06T20:17:42.486Z,9.40
2019-05-06T20:20:46.785Z,7.10
2019-05-06T20:23:52.653Z,7.47
2019-05-06T20:26:57.025Z,8.83
2019-05-06T20:30:03.251Z,9.40
2019-05-06T20:33:06.635Z,8.23
2019-05-06T20:36:12.582Z,8.80
2019-05-06T20:39:16.921Z,10.50
2019-05-06T20:42:22.253Z,8.83
2019-05-06T20:45:26.414Z,11.10
2019-05-06T20:48:32.517Z,9.37
2019-05-06T20:51:36.856Z,12.50
2019-05-06T20:54:42.672Z,8.47
2019-05-06T20:57:46.742Z,9.83
2019-05-06T21:00:52.133Z,9.90
2019-05-06T21:03:56.376Z,8.60
2019-05-06T21:07:00.236Z,11.23
2019-05-06T21:10:05.080Z,10.53
2019-05-06T21:13:08.999Z,7.97
2019-05-06T21:16:13.214Z,10.10
2019-05-06T21:19:17.771Z,11.57
2019-05-06T21:22:22.285Z,10.73
2019-05-06T21:25:26.291Z,10.60
2019-05-06T21:28:30.563Z,11.27
2019-05-06T21:31:35.324Z,11.77
2019-05-06T21:34:40.276Z,10.20
2019-05-06T21:37:44.469Z,14.03
2019-05-06T21:40:48.905Z,14.40
2019-05-06T21:43:52.832Z,15.03
2019-05-06T21:46:56.819Z,11.30
2019-05-06T21:50:00.742Z,10.83
2019-05-06T21:53:04.705Z,10.87
2019-05-06T21:56:09.184Z,12.57
2019-05-06T21:59:13.426Z,10.17
2019-05-06T22:02:20.128Z,10.40
2019-05-06T22:05:24.305Z,11.00
2019-05-06T22:08:28.521Z,11.27
2019-05-06T22:11:33.150Z,10.73
2019-05-06T22:14:37.392Z,9.03
2019-05-06T22:17:42.917Z,11.73
2019-05-06T22:21:04.949Z,9.63
2019-05-06T22:24:08.907Z,11.07
2019-05-06T22:27:13.711Z,10.67
2019-05-06T22:30:18.746Z,8.60
2019-05-06T22:33:22.580Z,9.20
2019-05-06T22:36:26.800Z,10.03
2019-05-06T22:39:31.684Z,8.13
2019-05-06T22:42:36.867Z,13.30
2019-05-06T22:45:42.544Z,10.03
2019-05-06T22:48:46.507Z,8.03
2019-05-06T22:51:52.144Z,8.67
2019-05-06T22:54:55.922Z,10.67
2019-05-06T22:58:02.410Z,9.90
2019-05-06T23:01:12.446Z,9.83
2019-05-06T23:04:17.460Z,9.07
2019-05-06T23:07:22.531Z,10.27
2019-05-06T23:10:26.802Z,12.23
2019-05-06T23:13:30.822Z,12.77
2019-05-06T23:16:35.180Z,11.27
2019-05-06T23:19:39.169Z,16.30
2019-05-06T23:22:43.308Z,11.97
2019-05-06T23:26:06.302Z,8.63
2019-05-06T23:29:10.152Z,8.70
2019-05-06T23:32:14.154Z,12.43
2019-05-06T23:35:18.303Z,7.60
2019-05-06T23:38:58.474Z,10.07
2019-05-06T23:42:38.438Z,8.80
2019-05-06T23:46:18.636Z,9.80
2019-05-06T23:49:59.096Z,10.97
2019-05-06T23:53:38.838Z,11.57
2019-05-06T23:56:44.762Z,12.63
2019-05-06T23:59:48.868Z,11.27
